Time;durP1;ratioP1;P1;durP2;ratioP2;P2;SDS_P1;SDS_P2;PMS_P1;PMS_P2;Temp;Humidity;BMP_temperature;BMP_pressure;BME280_temperature;BME280_humidity;BME280_pressure;Samples;Min_cycle;Max_cycle;Signal;HPM_P1;HPM_P2
2022/07/27 00:00:05;;;;;;;4.55;3.45;;;;;;;18.88;73.29;99789.34;1655425;84;21070;-74
2022/07/27 00:02:34;;;;;;;6.22;3.50;;;;;;;18.89;73.23;99788.80;1658629;84;21525;-73
2022/07/27 00:05:00;;;;;;;3.80;3.47;;;;;;;18.89;73.26;99792.30;1658453;84;21125;-75
2022/07/27 00:07:27;;;;;;;6.95;3.60;;;;;;;18.90;73.43;99793.14;1649428;84;21117;-74
2022/07/27 00:09:54;;;;;;;4.30;3.08;;;;;;;18.89;73.49;99788.80;1658511;84;21089;-73
2022/07/27 00:12:20;;;;;;;4.00;3.15;;;;;;;18.87;73.57;99791.75;1667446;84;21014;-74
2022/07/27 00:14:47;;;;;;;5.15;3.05;;;;;;;18.88;73.72;99795.29;1653986;84;21092;-73
2022/07/27 00:17:14;;;;;;;4.75;3.75;;;;;;;18.86;73.76;99792.30;1660679;84;21022;-76
2022/07/27 00:19:40;;;;;;;5.25;3.60;;;;;;;18.87;73.83;99791.75;1649058;84;21137;-75
2022/07/27 00:22:07;;;;;;;5.33;3.65;;;;;;;18.84;73.87;99788.23;1633713;82;21176;-73
2022/07/27 00:24:33;;;;;;;;;;;;;;;18.82;73.96;99789.84;1685485;84;21137;-74
2022/07/27 00:26:59;;;;;;;3.65;2.95;;;;;;;18.80;74.01;99790.63;1646433;84;20185;-74
2022/07/27 00:29:25;;;;;;;4.42;3.17;;;;;;;18.74;74.26;99788.09;1654540;84;20966;-74
2022/07/27 00:31:53;;;;;;;;;;;;;;;18.72;74.23;99791.58;1661571;84;21002;-74
2022/07/27 00:34:19;;;;;;;;;;;;;;;18.68;74.36;99787.23;1658730;84;20102;-75
2022/07/27 00:36:46;;;;;;;6.40;4.28;;;;;;;18.57;74.60;99789.03;1646142;84;20197;-73
2022/07/27 00:39:12;;;;;;;7.90;3.70;;;;;;;18.48;75.04;99794.60;1655819;84;21094;-73
2022/07/27 00:41:38;;;;;;;4.47;4.00;;;;;;;18.48;75.17;99792.71;1653089;84;21066;-74
2022/07/27 00:44:06;;;;;;;4.97;3.67;;;;;;;18.53;75.15;99794.63;1658226;83;22080;-75
2022/07/27 00:46:34;;;;;;;8.88;4.95;;;;;;;18.58;75.25;99792.54;1658996;84;21562;-69
2022/07/27 00:49:04;;;;;;;5.72;3.75;;;;;;;18.61;75.04;99788.80;1671031;84;21116;-71
2022/07/27 00:51:31;;;;;;;4.97;3.55;;;;;;;18.62;74.95;99795.00;1654569;84;21022;-74
2022/07/27 00:53:58;;;;;;;3.83;3.62;;;;;;;18.61;75.04;99798.24;1649982;84;20998;-74
2022/07/27 00:56:24;;;;;;;4.85;3.87;;;;;;;18.58;75.12;99800.09;1666267;84;21149;-73
2022/07/27 00:58:52;;;;;;;5.65;3.50;;;;;;;18.55;75.26;99794.39;1655660;84;21062;-72
2022/07/27 01:01:19;;;;;;;4.62;3.92;;;;;;;18.51;75.41;99796.77;1653397;84;20968;-73
2022/07/27 01:03:46;;;;;;;5.87;3.70;;;;;;;18.49;75.49;99796.22;1659123;84;21099;-73
2022/07/27 01:06:14;;;;;;;6.22;4.47;;;;;;;18.48;75.62;99793.25;1663332;84;21061;-73
2022/07/27 01:08:41;;;;;;;4.47;4.17;;;;;;;18.49;75.78;99791.62;1652624;84;21105;-75
2022/07/27 01:11:08;;;;;;;6.75;4.15;;;;;;;18.51;75.87;99794.08;1659987;83;21478;-75
2022/07/27 01:13:36;;;;;;;4.83;4.22;;;;;;;18.53;75.80;99791.12;1667409;84;21042;-75
2022/07/27 01:16:05;;;;;;;4.20;3.60;;;;;;;18.55;75.84;99794.39;1647954;84;21097;-75
2022/07/27 01:18:36;;;;;;;4.53;3.62;;;;;;;18.55;75.97;99785.75;1651398;84;21010;-74
2022/07/27 01:21:06;;;;;;;6.25;4.15;;;;;;;18.54;76.04;99793.58;1647769;84;20998;-75
2022/07/27 01:23:34;;;;;;;5.87;3.80;;;;;;;18.52;76.15;99789.52;1658477;84;21077;-75
2022/07/27 01:26:01;;;;;;;7.67;4.22;;;;;;;18.47;76.26;99792.95;1657732;84;21109;-75
2022/07/27 01:28:29;;;;;;;4.22;3.85;;;;;;;18.40;76.33;99791.83;1657318;84;20974;-75
2022/07/27 01:30:56;;;;;;;;;;;;;;;18.33;76.49;99795.25;1668178;84;21105;-75
2022/07/27 01:33:24;;;;;;;4.60;3.72;;;;;;;18.29;76.70;99798.17;1641994;84;20123;-75
2022/07/27 01:35:54;;;;;;;4.58;4.12;;;;;;;18.21;76.96;99789.97;1644080;86;21486;-76
2022/07/27 01:38:21;;;;;;;4.05;3.65;;;;;;;18.20;77.25;99793.75;1608924;86;21078;-74
2022/07/27 01:40:50;;;;;;;7.33;3.98;;;;;;;18.17;77.38;99794.78;1609632;86;21043;-75
2022/07/27 01:43:17;;;;;;;4.37;3.72;;;;;;;18.14;77.57;99793.92;1618524;86;21114;-73
2022/07/27 01:45:44;;;;;;;4.00;3.60;;;;;;;18.07;77.64;99790.89;1630093;86;21052;-73
2022/07/27 01:48:10;;;;;;;7.50;3.92;;;;;;;18.03;77.95;99791.12;1635430;86;21181;-73
2022/07/27 01:50:37;;;;;;;;;;;;;;;18.01;78.20;99788.41;1616377;86;21070;-72
2022/07/27 01:53:03;;;;;;;4.17;3.80;;;;;;;17.98;78.33;99786.20;1620536;86;20154;-73
2022/07/27 01:55:30;;;;;;;;;;;;;;;17.87;78.66;99783.35;1635370;84;21030;-75
2022/07/27 01:57:57;;;;;;;4.05;3.67;;;;;;;17.82;78.92;99786.48;1655409;85;20175;-75
2022/07/27 02:03:12;;;;;;;5.72;3.87;;;;;;;17.66;80.01;99774.16;1783394;78;22230;-74
2022/07/27 02:05:39;;;;;;;7.10;4.20;;;;;;;17.59;80.46;99772.70;1738262;80;21018;-73
2022/07/27 02:08:06;;;;;;;5.20;4.35;;;;;;;17.59;80.64;99778.91;1738874;80;21749;-73
2022/07/27 02:12:34;;;;;;;4.72;4.33;;;;;;;17.61;80.77;99782.19;1742295;80;21011;-74
2022/07/27 02:13:05;;;;;;;5.60;4.22;;;;;;;17.63;80.83;99786.80;1685760;83;20985;-75
2022/07/27 02:15:31;;;;;;;5.70;4.78;;;;;;;17.62;80.86;99791.89;1711901;81;21044;-72
2022/07/27 02:17:58;;;;;;;4.37;4.03;;;;;;;17.62;81.05;99792.43;1717467;81;21585;-73
2022/07/27 02:20:25;;;;;;;5.75;4.17;;;;;;;17.61;81.12;99798.36;1718497;83;21021;-72
2022/07/27 02:22:51;;;;;;;6.45;4.30;;;;;;;17.62;81.19;99793.23;1717643;81;21530;-72
2022/07/27 02:25:18;;;;;;;;;;;;;;;17.63;81.27;99796.73;1708137;82;21031;-73
2022/07/27 02:27:46;;;;;;;5.45;4.95;;;;;;;17.67;81.43;99797.91;1713888;82;20180;-72
2022/07/27 02:30:14;;;;;;;6.35;5.15;;;;;;;17.69;81.53;99795.77;1707391;82;20976;-72
2022/07/27 02:32:42;;;;;;;6.03;4.10;;;;;;;17.79;81.58;99792.39;1704136;82;21059;-72
2022/07/27 02:35:09;;;;;;;8.83;4.80;;;;;;;17.91;81.13;99797.16;1752364;80;21063;-73
2022/07/27 02:37:35;;;;;;;7.47;4.75;;;;;;;17.97;80.45;99796.17;1764316;80;21027;-72
2022/07/27 02:40:01;;;;;;;5.97;5.12;;;;;;;18.01;80.22;99794.59;1766240;80;21580;-72
2022/07/27 02:42:27;;;;;;;12.35;6.50;;;;;;;18.08;80.08;99795.23;1763422;80;21111;-73
2022/07/27 02:44:54;;;;;;;5.00;4.60;;;;;;;18.18;79.54;99797.23;1769833;79;21051;-74
2022/07/27 02:47:22;;;;;;;;;;;;;;;18.29;79.11;99796.83;1764277;80;21506;-73
2022/07/27 02:49:48;;;;;;;5.60;4.40;;;;;;;18.37;78.65;99796.37;1762614;80;20112;-75
2022/07/27 02:52:14;;;;;;;;;;;;;;;18.38;78.53;99793.94;1765582;79;21111;-73
2022/07/27 02:54:40;;;;;;;6.00;5.10;;;;;;;18.41;78.29;99796.68;1763200;80;20491;-72
2022/07/27 02:57:07;;;;;;;;;;;;;;;18.38;78.47;99799.33;1715509;80;21018;-73
2022/07/27 02:59:33;;;;;;;7.97;5.25;;;;;;;18.43;78.43;99794.00;1705686;82;20143;-71
2022/07/27 03:02:00;;;;;;;5.42;4.50;;;;;;;18.46;78.43;99801.59;1752917;79;21006;-74
2022/07/27 03:04:26;;;;;;;5.70;4.60;;;;;;;18.54;78.41;99798.17;1771499;80;21154;-74
2022/07/27 03:06:52;;;;;;;;;;;;;;;18.70;78.50;99803.98;1770708;79;20969;-74
2022/07/27 03:09:18;;;;;;;6.53;4.42;;;;;;;19.05;77.94;99800.83;1774091;79;20112;-74
2022/07/27 03:11:46;;;;;;;8.15;5.12;;;;;;;19.59;76.60;99800.39;1771988;79;21046;-74
2022/07/27 03:14:12;;;;;;;9.08;5.37;;;;;;;20.28;74.15;99798.59;1766062;80;21051;-75
2022/07/27 03:16:39;;;;;;;7.87;4.62;;;;;;;20.98;71.56;99806.62;1765751;80;21503;-75
2022/07/27 03:19:06;;;;;;;5.50;4.28;;;;;;;21.68;68.55;99801.97;1774429;79;21008;-73
2022/07/27 03:21:34;;;;;;;10.35;4.90;;;;;;;22.40;65.84;99804.42;1774982;80;21102;-73
2022/07/27 03:24:00;;;;;;;7.45;4.70;;;;;;;23.08;62.77;99805.63;1775523;80;21051;-74
2022/07/27 03:26:29;;;;;;;7.78;3.85;;;;;;;23.67;60.16;99799.62;1766872;79;20985;-75
2022/07/27 03:28:56;;;;;;;5.95;5.20;;;;;;;24.20;57.95;99800.92;1772181;80;21043;-75
2022/07/27 03:31:22;;;;;;;4.97;4.47;;;;;;;24.64;56.17;99803.90;1769275;80;21015;-81
2022/07/27 03:33:50;;;;;;;9.18;5.85;;;;;;;24.97;54.77;99805.28;1738614;80;21147;-81
2022/07/27 03:36:17;;;;;;;12.10;6.47;;;;;;;25.17;53.70;99805.52;1720938;82;21057;-77
2022/07/27 03:38:43;;;;;;;13.25;5.65;;;;;;;25.31;52.89;99800.68;1710365;82;21011;-87
2022/07/27 03:41:09;;;;;;;11.12;5.97;;;;;;;25.41;52.17;99804.05;1689538;82;21043;-79
2022/07/27 03:43:35;;;;;;;8.80;4.42;;;;;;;25.47;51.75;99808.02;1704582;82;21073;-83
2022/07/27 03:46:02;;;;;;;6.92;4.92;;;;;;;25.49;51.68;99805.83;1723229;82;21407;-82
2022/07/27 03:48:28;;;;;;;8.00;5.30;;;;;;;25.46;51.52;99804.49;1727652;82;20978;-81
2022/07/27 03:50:54;;;;;;;6.97;5.65;;;;;;;25.37;51.71;99803.03;1738386;82;21166;-82
2022/07/27 03:53:20;;;;;;;8.45;5.20;;;;;;;25.40;51.69;99809.80;1752868;80;21109;-82
2022/07/27 03:55:52;;;;;;;11.88;5.08;;;;;;;25.70;51.06;99807.62;1741097;82;21081;-78
2022/07/27 03:58:22;;;;;;;8.05;4.60;;;;;;;26.18;49.41;99807.21;1684781;82;21527;-82
2022/07/27 04:00:46;;;;;;;7.70;5.33;;;;;;;26.74;47.96;99813.39;1696712;82;21488;-80
2022/07/27 04:03:13;;;;;;;8.85;5.08;;;;;;;27.23;46.12;99805.38;1726531;80;21002;-84
2022/07/27 04:05:40;;;;;;;8.25;5.20;;;;;;;27.62;44.84;99802.47;1727950;80;21025;-82
2022/07/27 04:08:07;;;;;;;7.62;4.80;;;;;;;28.05;43.90;99807.30;1740521;80;21058;-84
2022/07/27 04:10:33;;;;;;;4.85;4.35;;;;;;;28.46;42.75;99802.80;1737413;82;21046;-88
2022/07/27 04:12:59;;;;;;;5.03;3.90;;;;;;;28.83;41.47;99800.55;1733453;80;21052;-85
2022/07/27 04:15:26;;;;;;;8.43;4.78;;;;;;;29.18;41.12;99793.69;1732863;82;21009;-84
2022/07/27 04:17:52;;;;;;;8.78;4.42;;;;;;;29.51;40.23;99795.83;1727236;80;21133;-81
2022/07/27 04:20:19;;;;;;;6.47;3.47;;;;;;;29.78;39.79;99796.55;1736637;80;21100;-84
2022/07/27 04:22:47;;;;;;;6.42;4.22;;;;;;;30.03;39.09;99802.48;1717043;82;21010;-81
2022/07/27 04:25:15;;;;;;;5.97;4.62;;;;;;;30.24;38.41;99797.02;1701502;82;21619;-84
2022/07/27 04:27:42;;;;;;;5.83;3.65;;;;;;;30.39;37.49;99794.28;1702697;84;21064;-80
2022/07/27 04:30:11;;;;;;;5.28;3.95;;;;;;;30.49;37.74;99789.52;1701528;82;21553;-78
2022/07/27 04:32:38;;;;;;;3.52;3.30;;;;;;;30.67;37.09;99793.75;1699813;82;21135;-78
2022/07/27 04:35:06;;;;;;;4.17;3.58;;;;;;;30.90;36.93;99788.70;1716116;82;21530;-82
2022/07/27 04:37:34;;;;;;;6.67;3.20;;;;;;;31.16;36.21;99791.77;1722787;82;21482;-81
2022/07/27 04:40:01;;;;;;;2.70;2.58;;;;;;;31.37;35.64;99798.58;1720529;81;21041;-76
2022/07/27 04:42:28;;;;;;;5.28;3.85;;;;;;;31.47;35.68;99793.23;1736280;81;21010;-82
2022/07/27 04:44:58;;;;;;;3.25;2.50;;;;;;;31.54;35.00;99792.89;1732592;81;21045;-76
2022/07/27 04:47:25;;;;;;;3.55;2.87;;;;;;;31.60;34.86;99790.13;1733081;81;21018;-77
2022/07/27 04:49:55;;;;;;;3.62;3.33;;;;;;;31.82;34.83;99790.84;1722267;81;20998;-76
2022/07/27 04:52:22;;;;;;;2.65;2.42;;;;;;;32.10;35.11;99792.90;1721605;81;21616;-76
2022/07/27 04:54:52;;;;;;;4.08;2.30;;;;;;;32.42;34.40;99799.96;1724415;81;21048;-74
2022/07/27 04:57:20;;;;;;;6.15;1.72;;;;;;;32.69;33.68;99795.08;1714333;82;20957;-74
2022/07/27 04:59:48;;;;;;;1.80;1.60;;;;;;;32.84;33.40;99799.64;1721970;82;21541;-74
2022/07/27 05:02:14;;;;;;;5.15;2.15;;;;;;;32.91;32.96;99792.94;1761223;80;21024;-75
2022/07/27 05:04:40;;;;;;;4.87;2.30;;;;;;;32.93;33.11;99792.01;1729693;80;21358;-75
2022/07/27 05:07:08;;;;;;;3.87;1.70;;;;;;;32.91;32.58;99805.36;1732695;82;21119;-75
2022/07/27 05:09:34;;;;;;;3.25;2.22;;;;;;;32.89;32.32;99800.73;1733422;82;21035;-75
2022/07/27 05:12:01;;;;;;;4.12;2.10;;;;;;;32.77;33.01;99807.92;1744648;81;21145;-74
2022/07/27 05:14:29;;;;;;;2.83;2.67;;;;;;;32.47;33.03;99770.18;1735788;82;21514;-73
2022/07/27 05:16:55;;;;;;;3.92;3.62;;;;;;;32.69;33.20;99799.22;1718794;82;21082;-73
2022/07/27 05:19:21;;;;;;;4.15;2.08;;;;;;;32.77;32.70;99796.88;1727631;82;21502;-73
2022/07/27 05:21:47;;;;;;;7.03;2.55;;;;;;;32.73;32.08;99797.36;1732563;82;21031;-73
2022/07/27 05:24:14;;;;;;;3.42;2.72;;;;;;;32.61;32.37;99796.05;1708499;82;21113;-75
2022/07/27 05:26:40;;;;;;;9.55;3.00;;;;;;;32.54;32.86;99793.84;1717085;82;21070;-74
2022/07/27 05:29:06;;;;;;;4.67;2.62;;;;;;;32.51;32.73;99795.94;1685466;83;21084;-74
2022/07/27 05:31:33;;;;;;;5.28;2.40;;;;;;;32.50;32.29;99808.11;1698844;82;21095;-75
2022/07/27 05:34:00;;;;;;;4.97;3.80;;;;;;;32.42;33.27;99808.23;1705664;82;20979;-75
2022/07/27 05:36:26;;;;;;;5.22;4.83;;;;;;;32.26;32.55;99812.30;1703410;82;21487;-74
2022/07/27 05:38:52;;;;;;;1.90;1.80;;;;;;;32.02;33.00;99813.92;1710337;82;20983;-75
2022/07/27 05:41:24;;;;;;;4.10;2.00;;;;;;;31.90;32.21;99818.05;1706314;82;21058;-75
2022/07/27 05:43:53;;;;;;;4.85;1.82;;;;;;;31.75;32.47;99820.33;1704173;82;21120;-75
2022/07/27 05:46:21;;;;;;;2.08;0.90;;;;;;;31.66;32.33;99811.95;1723415;82;21502;-75
2022/07/27 05:48:48;;;;;;;4.97;1.35;;;;;;;31.60;32.70;99815.51;1738342;82;21575;-75
2022/07/27 05:51:15;;;;;;;2.60;0.95;;;;;;;31.58;32.92;99819.97;1740955;82;21046;-74
2022/07/27 05:53:41;;;;;;;5.12;4.83;;;;;;;31.47;32.40;99783.01;1742486;82;21109;-72
2022/07/27 05:56:09;;;;;;;2.42;2.30;;;;;;;31.75;32.83;99825.84;1726944;82;20987;-72
2022/07/27 05:58:36;;;;;;;0.62;0.50;;;;;;;31.69;33.03;99824.47;1734788;82;21034;-73
2022/07/27 06:01:02;;;;;;;2.37;0.78;;;;;;;31.38;32.74;99826.33;1730480;82;21166;-73
2022/07/27 06:03:30;;;;;;;7.53;1.77;;;;;;;30.99;33.55;99823.03;1731486;82;21023;-73
2022/07/27 06:07:57;;;;;;;2.20;0.72;;;;;;;30.74;34.39;99832.52;1736172;82;21276;-73
2022/07/27 06:08:26;;;;;;;2.70;1.07;;;;;;;30.74;34.63;99832.52;1740109;80;21495;-74
2022/07/27 06:10:53;;;;;;;4.15;0.78;;;;;;;30.86;34.29;99826.27;1724465;82;21022;-73
2022/07/27 06:13:19;;;;;;;4.97;1.20;;;;;;;31.03;33.99;99821.20;1728553;81;20995;-73
2022/07/27 06:15:46;;;;;;;1.47;0.57;;;;;;;31.17;33.95;99827.20;1707498;82;21061;-74
2022/07/27 06:18:17;;;;;;;5.72;0.65;;;;;;;31.37;33.37;99826.91;1711507;82;21002;-73
2022/07/27 06:20:42;;;;;;;4.12;0.30;;;;;;;31.49;33.21;99826.73;1717606;82;21099;-73
2022/07/27 06:23:09;;;;;;;1.35;1.25;;;;;;;31.57;32.43;99824.44;1715074;82;21033;-72
2022/07/27 06:25:36;;;;;;;2.75;1.05;;;;;;;31.48;33.63;99821.81;1703197;82;21005;-75
2022/07/27 06:28:05;;;;;;;1.22;0.60;;;;;;;31.44;32.80;99824.41;1696366;83;21010;-74
2022/07/27 06:30:32;;;;;;;0.75;0.50;;;;;;;31.35;32.37;99820.15;1712267;82;21553;-72
2022/07/27 06:32:58;;;;;;;1.75;0.30;;;;;;;31.19;32.94;99819.43;1704818;82;22150;-74
2022/07/27 06:35:26;;;;;;;1.72;1.40;;;;;;;31.12;33.40;99823.30;1690389;82;20999;-73
2022/07/27 06:37:52;;;;;;;3.75;1.95;;;;;;;31.12;32.77;99821.92;1689832;82;21503;-73
2022/07/27 06:40:20;;;;;;;3.10;1.32;;;;;;;31.02;33.19;99822.33;1688575;82;21110;-73
2022/07/27 06:42:47;;;;;;;1.00;0.57;;;;;;;30.85;32.97;99821.34;1688330;82;21067;-73
2022/07/27 06:45:13;;;;;;;1.77;0.33;;;;;;;30.81;32.93;99824.51;1730982;81;21536;-74
2022/07/27 06:47:40;;;;;;;1.12;0.30;;;;;;;30.82;31.80;99831.63;1726559;81;21063;-72
2022/07/27 06:50:08;;;;;;;1.40;1.22;;;;;;;30.78;32.06;99830.70;1726397;81;20999;-73
2022/07/27 06:52:36;;;;;;;1.82;1.35;;;;;;;30.77;32.71;99824.16;1751422;81;21067;-74
2022/07/27 06:55:02;;;;;;;1.40;0.80;;;;;;;30.92;32.65;99824.94;1735130;81;21070;-74
2022/07/27 06:57:29;;;;;;;5.45;3.25;;;;;;;31.09;32.05;99825.92;1762590;80;21058;-73
2022/07/27 06:59:55;;;;;;;1.65;1.47;;;;;;;31.15;32.29;99826.73;1722627;81;20990;-75
2022/07/27 07:02:21;;;;;;;3.75;2.75;;;;;;;31.30;32.10;99825.28;1730480;81;21093;-73
2022/07/27 07:04:48;;;;;;;0.40;0.40;;;;;;;31.34;31.63;99833.09;1738381;81;21042;-74
2022/07/27 07:07:14;;;;;;;3.20;2.58;;;;;;;31.26;31.74;99831.83;1731520;81;21037;-73
2022/07/27 07:09:42;;;;;;;1.00;0.82;;;;;;;31.33;32.19;99832.08;1724925;81;21026;-72
2022/07/27 07:12:08;;;;;;;1.75;0.75;;;;;;;31.52;32.20;99824.11;1726097;80;20975;-74
2022/07/27 07:14:34;;;;;;;1.75;0.25;;;;;;;31.59;31.86;99828.48;1724807;81;21038;-73
2022/07/27 07:17:02;;;;;;;4.67;1.30;;;;;;;31.43;31.39;99835.17;1723643;81;21042;-74
2022/07/27 07:19:28;;;;;;;3.17;0.72;;;;;;;31.27;31.59;99834.24;1742382;81;20964;-74
2022/07/27 07:21:54;;;;;;;2.47;0.30;;;;;;;31.26;31.53;99829.08;1739311;81;21042;-73
2022/07/27 07:24:20;;;;;;;1.57;0.25;;;;;;;31.15;31.51;99821.80;1735890;81;20992;-73
2022/07/27 07:26:46;;;;;;;3.60;0.62;;;;;;;30.93;32.10;99827.11;1726337;81;21374;-72
2022/07/27 07:29:12;;;;;;;1.92;0.30;;;;;;;30.75;31.95;99826.44;1721214;82;21487;-73
2022/07/27 07:31:38;;;;;;;2.70;0.50;;;;;;;30.73;31.86;99830.90;1732776;81;21028;-72
2022/07/27 07:34:05;;;;;;;1.10;0.42;;;;;;;30.59;31.93;99827.06;1730983;81;21614;-75
2022/07/27 07:36:31;;;;;;;2.62;0.50;;;;;;;30.26;31.87;99826.34;1728671;82;21498;-73
2022/07/27 07:38:58;;;;;;;5.58;0.65;;;;;;;30.00;33.56;99821.00;1728638;81;21093;-74
2022/07/27 07:41:24;;;;;;;3.92;0.40;;;;;;;29.94;33.22;99818.80;1723071;81;21019;-73
2022/07/27 07:43:50;;;;;;;3.12;0.75;;;;;;;29.99;33.20;99820.78;1725713;81;21514;-70
2022/07/27 07:46:16;;;;;;;0.80;0.40;;;;;;;29.97;33.16;99824.44;1744417;81;21062;-73
2022/07/27 07:48:43;;;;;;;2.55;0.40;;;;;;;29.89;33.39;99815.65;1732564;81;21459;-73
2022/07/27 07:51:11;;;;;;;0.40;0.23;;;;;;;29.76;33.64;99823.00;1734223;81;21563;-72
2022/07/27 07:53:38;;;;;;;4.20;0.40;;;;;;;29.60;33.64;99819.95;1727412;81;21196;-72
2022/07/27 07:56:06;;;;;;;1.22;0.45;;;;;;;29.55;33.91;99822.86;1723726;81;20982;-72
2022/07/27 07:58:34;;;;;;;3.75;0.53;;;;;;;29.54;34.17;99819.09;1743433;81;21011;-73
2022/07/27 08:01:00;;;;;;;1.17;0.50;;;;;;;29.52;34.17;99819.42;1730336;81;21030;-73
2022/07/27 08:03:26;;;;;;;2.02;0.62;;;;;;;29.41;33.06;99832.69;1750710;81;21085;-74
2022/07/27 08:05:53;;;;;;;1.85;0.53;;;;;;;29.30;33.41;99825.36;1725198;81;21640;-73
2022/07/27 08:08:20;;;;;;;1.50;0.40;;;;;;;29.34;33.50;99823.34;1739497;81;21550;-74
2022/07/27 08:10:48;;;;;;;3.58;1.15;;;;;;;29.37;33.22;99828.20;1726701;82;21007;-73
2022/07/27 08:13:15;;;;;;;1.82;0.60;;;;;;;29.33;33.76;99827.21;1734538;81;20990;-73
2022/07/27 08:15:42;;;;;;;2.40;0.70;;;;;;;29.30;33.75;99819.88;1728338;81;21034;-74
2022/07/27 08:18:08;;;;;;;1.07;0.95;;;;;;;29.34;33.99;99825.52;1731583;81;21423;-73
2022/07/27 08:20:35;;;;;;;1.80;0.50;;;;;;;29.37;34.27;99822.70;1693306;82;21066;-72
2022/07/27 08:23:02;;;;;;;3.90;0.62;;;;;;;29.44;34.32;99821.61;1690252;83;21034;-71
2022/07/27 08:25:29;;;;;;;4.00;0.88;;;;;;;29.49;34.25;99822.81;1691096;83;20968;-73
2022/07/27 08:27:55;;;;;;;1.80;0.50;;;;;;;29.47;33.82;99820.97;1692585;83;20976;-72
2022/07/27 08:30:23;;;;;;;6.42;0.50;;;;;;;29.39;33.96;99818.48;1696476;83;21122;-72
2022/07/27 08:32:57;;;;;;;0.60;0.50;;;;;;;29.31;34.15;99816.01;1695075;83;21146;-72
2022/07/27 08:35:26;;;;;;;1.37;1.02;;;;;;;29.26;33.79;99823.03;1681561;83;21003;-72
2022/07/27 08:37:53;;;;;;;3.08;1.42;;;;;;;29.24;34.46;99820.39;1685609;82;20974;-74
2022/07/27 08:40:20;;;;;;;0.88;0.50;;;;;;;29.27;34.37;99819.17;1681801;83;20983;-72
2022/07/27 08:42:46;;;;;;;4.58;0.65;;;;;;;29.42;34.01;99818.39;1698510;82;21550;-73
2022/07/27 08:45:16;;;;;;;0.82;0.82;;;;;;;29.53;33.01;99815.53;1691009;83;21068;-74
2022/07/27 08:47:44;;;;;;;0.95;0.95;;;;;;;29.60;33.08;99813.66;1660867;85;21042;-74
2022/07/27 08:50:27;;;;;;;2.05;0.60;;;;;;;29.68;33.08;99814.98;1654824;85;21012;-75
2022/07/27 08:53:04;;;;;;;2.67;0.40;;;;;;;29.70;32.98;99815.48;1650552;85;21085;-72
2022/07/27 08:55:35;;;;;;;2.15;0.50;;;;;;;29.62;33.07;99817.67;1656419;85;20995;-73
2022/07/27 08:58:04;;;;;;;2.02;0.57;;;;;;;29.49;33.14;99821.44;1670533;85;21067;-73
2022/07/27 09:00:32;;;;;;;0.50;0.30;;;;;;;29.40;33.34;99817.91;1649516;85;21024;-72
2022/07/27 09:02:59;;;;;;;1.55;0.30;;;;;;;29.28;32.29;99819.39;1646554;84;21742;-72
2022/07/27 09:05:26;;;;;;;0.53;0.20;;;;;;;29.09;32.93;99821.09;1669562;86;21068;-72
2022/07/27 09:07:52;;;;;;;0.40;0.30;;;;;;;28.97;33.11;99820.97;1653862;84;21071;-73
2022/07/27 09:10:35;;;;;;;0.93;0.42;;;;;;;28.86;32.86;99819.12;1663501;84;21512;-72
2022/07/27 09:13:26;;;;;;;2.02;0.30;;;;;;;28.80;32.95;99814.93;1661402;86;20996;-73
2022/07/27 09:16:06;;;;;;;2.58;0.35;;;;;;;28.86;33.25;99821.86;1653952;86;21555;-73
2022/07/27 09:18:36;;;;;;;3.72;0.55;;;;;;;28.96;33.10;99810.31;1652626;86;21504;-72
2022/07/27 09:21:15;;;;;;;1.05;0.93;;;;;;;29.05;33.25;99814.66;1644775;86;21103;-72
2022/07/27 09:23:51;;;;;;;2.62;0.37;;;;;;;29.11;33.26;99807.06;1668022;85;21576;-72
2022/07/27 09:26:26;;;;;;;2.70;0.35;;;;;;;29.16;32.60;99811.59;1651773;85;21016;-73
2022/07/27 09:28:56;;;;;;;3.17;2.58;;;;;;;29.15;32.92;99809.42;1639683;85;21552;-74
2022/07/27 09:31:23;;;;;;;2.25;1.92;;;;;;;29.15;33.39;99809.42;1653601;85;21030;-73
2022/07/27 09:33:54;;;;;;;3.52;2.40;;;;;;;29.18;33.72;99807.41;1661479;85;21141;-73
2022/07/27 09:36:24;;;;;;;1.82;0.60;;;;;;;29.21;33.69;99812.22;1653002;85;21293;-73
2022/07/27 09:39:05;;;;;;;1.07;0.45;;;;;;;29.24;34.16;99806.09;1652185;85;21070;-73
2022/07/27 09:41:46;;;;;;;1.17;0.28;;;;;;;29.24;33.42;99808.04;1652600;85;21535;-73
2022/07/27 09:44:13;;;;;;;4.62;0.50;;;;;;;29.14;32.79;99816.05;1666646;85;21527;-72
2022/07/27 09:46:43;;;;;;;1.52;0.50;;;;;;;28.91;33.05;99812.10;1663650;85;21082;-73
2022/07/27 09:49:32;;;;;;;2.92;0.23;;;;;;;28.83;33.78;99812.89;1652084;85;21519;-72
2022/07/27 09:52:01;;;;;;;1.27;0.50;;;;;;;28.83;33.33;99814.84;1609525;85;21612;-72
2022/07/27 09:54:42;;;;;;;4.35;0.95;;;;;;;28.90;33.10;99813.79;1658944;85;21082;-73
2022/07/27 09:57:10;;;;;;;0.40;0.30;;;;;;;29.04;33.88;99814.98;1655155;85;21582;-76
2022/07/27 09:59:39;;;;;;;2.52;0.60;;;;;;;29.27;33.60;99812.86;1652702;85;22111;-73
2022/07/27 10:02:05;;;;;;;2.72;2.62;;;;;;;29.43;32.98;99822.77;1668017;85;21114;-72
2022/07/27 10:04:34;;;;;;;1.12;0.82;;;;;;;29.46;33.35;99815.22;1656147;85;21142;-72
2022/07/27 10:07:01;;;;;;;0.62;0.50;;;;;;;29.50;33.51;99817.00;1664001;85;21039;-73
2022/07/27 10:09:29;;;;;;;1.70;0.40;;;;;;;29.57;33.26;99817.84;1669660;85;21027;-73
2022/07/27 10:11:56;;;;;;;0.80;0.80;;;;;;;29.67;33.22;99816.70;1629811;85;21114;-72
2022/07/27 10:14:24;;;;;;;0.75;0.75;;;;;;;29.77;32.64;99815.56;1654660;85;21496;-74
2022/07/27 10:16:52;;;;;;;3.25;1.20;;;;;;;29.82;32.60;99821.67;1665853;85;20972;-74
2022/07/27 10:19:26;;;;;;;0.47;0.47;;;;;;;29.91;32.40;99813.38;1661080;85;21114;-74
2022/07/27 10:21:52;;;;;;;2.47;0.82;;;;;;;30.00;32.20;99814.70;1665539;85;21079;-73
2022/07/27 10:24:35;;;;;;;4.45;1.62;;;;;;;30.06;31.76;99816.95;1657153;85;21047;-73
2022/07/27 10:26:59;;;;;;;1.67;0.60;;;;;;;30.15;32.04;99814.70;1667938;85;20976;-74
2022/07/27 10:29:25;;;;;;;1.60;0.40;;;;;;;30.22;31.40;99823.23;1613092;85;21058;-73
2022/07/27 10:31:56;;;;;;;1.42;0.30;;;;;;;30.22;31.09;99819.91;1662237;85;21472;-73
2022/07/27 10:34:41;;;;;;;1.05;0.30;;;;;;;30.24;31.02;99819.59;1666676;85;21542;-73
2022/07/27 10:37:13;;;;;;;2.60;0.57;;;;;;;30.32;30.94;99813.25;1677312;85;21035;-74
2022/07/27 10:39:47;;;;;;;1.50;1.37;;;;;;;30.32;30.91;99814.62;1663722;85;21052;-74
2022/07/27 10:42:30;;;;;;;1.40;0.55;;;;;;;30.22;31.96;99808.92;1660841;84;21028;-73
2022/07/27 10:45:13;;;;;;;2.60;0.70;;;;;;;30.15;31.30;99807.27;1662767;84;21642;-76
2022/07/27 10:47:51;;;;;;;0.82;0.42;;;;;;;30.11;31.75;99808.27;1659098;85;21048;-74
2022/07/27 10:50:26;;;;;;;1.50;0.30;;;;;;;30.05;32.10;99809.83;1655541;84;21210;-72
2022/07/27 10:53:00;;;;;;;1.30;0.20;;;;;;;29.95;31.04;99810.22;1652053;85;21537;-71
2022/07/27 10:55:35;;;;;;;2.12;1.92;;;;;;;29.86;31.22;99802.59;1668463;85;20992;-74
2022/07/27 10:58:22;;;;;;;1.95;1.85;;;;;;;29.89;31.99;99806.03;1662327;85;21008;-75
2022/07/27 11:00:54;;;;;;;1.25;0.30;;;;;;;29.96;32.19;99806.33;1652438;85;21662;-74
2022/07/27 11:03:35;;;;;;;2.02;0.72;;;;;;;29.99;32.14;99808.97;1653985;85;21035;-73
2022/07/27 11:06:10;;;;;;;1.10;0.20;;;;;;;29.93;32.17;99805.60;1660300;85;21028;-73
2022/07/27 11:08:41;;;;;;;1.50;0.40;;;;;;;29.93;32.39;99806.98;1653574;85;21067;-72
2022/07/27 11:11:16;;;;;;;2.70;0.53;;;;;;;29.95;32.39;99810.77;1674172;84;20960;-73
2022/07/27 11:13:42;;;;;;;2.90;0.62;;;;;;;29.98;32.25;99814.24;1668320;85;21020;-72
2022/07/27 11:16:14;;;;;;;1.15;0.40;;;;;;;30.05;32.33;99809.83;1662618;84;20988;-74
2022/07/27 11:18:43;;;;;;;1.80;1.10;;;;;;;30.09;32.46;99810.77;1664839;84;21000;-73
2022/07/27 11:21:27;;;;;;;5.17;1.90;;;;;;;30.12;31.92;99813.98;1658705;85;21493;-74
2022/07/27 11:23:58;;;;;;;0.42;0.40;;;;;;;30.06;32.11;99809.25;1659128;85;21646;-71
2022/07/27 11:26:29;;;;;;;0.50;0.20;;;;;;;30.02;32.18;99805.56;1660001;85;21603;-72
2022/07/27 11:28:57;;;;;;;2.08;1.90;;;;;;;29.98;32.16;99808.75;1659705;85;21052;-73
2022/07/27 11:31:23;;;;;;;2.30;0.30;;;;;;;29.93;32.46;99806.18;1655900;85;21144;-72
2022/07/27 11:33:56;;;;;;;2.10;0.30;;;;;;;29.88;32.31;99806.61;1660569;85;21059;-72
2022/07/27 11:36:43;;;;;;;6.80;0.47;;;;;;;29.87;32.41;99805.56;1667713;85;21339;-71
2022/07/27 11:39:14;;;;;;;2.10;0.47;;;;;;;29.91;32.51;99806.50;1673316;84;21139;-72
2022/07/27 11:41:42;;;;;;;1.32;0.50;;;;;;;29.93;32.52;99809.72;1671846;85;21464;-74
2022/07/27 11:44:13;;;;;;;1.40;1.27;;;;;;;29.97;32.83;99814.81;1667759;84;21004;-74